Time;durP1;ratioP1;P1;durP2;ratioP2;P2;SDS_P1;SDS_P2;PMS_P1;PMS_P2;Temp;Humidity;BMP_temperature;BMP_pressure;BME280_temperature;BME280_humidity;BME280_pressure;Samples;Min_cycle;Max_cycle;Signal;HPM_P1;HPM_P2
2023/12/05 00:00:15;;;;;;;6.40;4.57;;;0.70;99.90;;;;;;5016564;28;20209;-82
2023/12/05 00:02:40;;;;;;;6.20;4.63;;;0.60;99.90;;;;;;5035410;28;20210;-81
2023/12/05 00:05:06;;;;;;;7.40;4.63;;;0.60;99.90;;;;;;5035951;28;20202;-82
2023/12/05 00:07:34;;;;;;;6.37;4.77;;;0.60;99.90;;;;;;5035770;28;20174;-82
2023/12/05 00:09:59;;;;;;;5.97;4.00;;;0.60;99.90;;;;;;5013572;28;20189;-81
2023/12/05 00:12:26;;;;;;;5.73;4.23;;;0.60;99.90;;;;;;4998023;28;20278;-82
2023/12/05 00:14:51;;;;;;;5.97;4.40;;;0.60;99.90;;;;;;5015935;28;20180;-82
2023/12/05 00:17:17;;;;;;;5.63;4.00;;;0.60;99.90;;;;;;5015628;28;20164;-82
2023/12/05 00:19:42;;;;;;;7.37;4.50;;;0.60;99.90;;;;;;5015108;28;20182;-81
2023/12/05 00:22:08;;;;;;;6.97;4.53;;;0.60;99.90;;;;;;5015675;28;20192;-82
2023/12/05 00:24:34;;;;;;;6.40;4.77;;;0.50;99.90;;;;;;4998042;28;20270;-82
2023/12/05 00:27:00;;;;;;;7.57;4.80;;;0.50;99.90;;;;;;5027817;28;20652;-81
2023/12/05 00:29:25;;;;;;;7.07;4.63;;;0.50;99.90;;;;;;5036550;28;20226;-82
2023/12/05 00:31:52;;;;;;;7.20;5.10;;;0.50;99.90;;;;;;5054859;28;20217;-82
2023/12/05 00:34:18;;;;;;;5.33;4.33;;;0.50;99.90;;;;;;5037091;28;20170;-82
2023/12/05 00:36:44;;;;;;;7.17;4.87;;;0.50;99.90;;;;;;5037228;28;20174;-82
2023/12/05 00:39:09;;;;;;;8.20;4.93;;;0.50;99.90;;;;;;5054916;28;20199;-82
2023/12/05 00:41:35;;;;;;;6.17;4.33;;;0.50;99.90;;;;;;5054790;28;20292;-82
2023/12/05 00:44:00;;;;;;;5.77;4.23;;;0.50;99.90;;;;;;5036908;28;20208;-82
2023/12/05 00:46:27;;;;;;;6.30;4.23;;;0.50;99.90;;;;;;5036901;28;20178;-82
2023/12/05 00:48:53;;;;;;;5.67;4.03;;;0.60;99.90;;;;;;5054809;28;20208;-81
2023/12/05 00:51:18;;;;;;;6.00;4.53;;;0.60;99.90;;;;;;5036666;28;20237;-81
2023/12/05 00:53:44;;;;;;;5.97;4.23;;;0.60;99.90;;;;;;5054939;28;20166;-81
2023/12/05 00:56:11;;;;;;;5.73;3.87;;;0.60;99.90;;;;;;5036876;28;20208;-82
2023/12/05 00:58:37;;;;;;;6.40;4.43;;;0.60;99.90;;;;;;5055063;28;20177;-81
2023/12/05 01:01:03;;;;;;;6.80;4.37;;;0.60;99.90;;;;;;5054097;28;20677;-82
2023/12/05 01:03:29;;;;;;;6.27;3.87;;;0.60;99.90;;;;;;5036428;28;20189;-82
2023/12/05 01:05:54;;;;;;;6.30;4.20;;;0.70;99.90;;;;;;5054503;28;20174;-82
2023/12/05 01:08:20;;;;;;;5.63;4.17;;;0.70;99.90;;;;;;5036785;28;20189;-82
2023/12/05 01:10:45;;;;;;;5.80;4.23;;;0.70;99.90;;;;;;5036080;28;20209;-82
2023/12/05 01:13:11;;;;;;;6.13;4.20;;;0.70;99.90;;;;;;5054202;28;20177;-82
2023/12/05 01:15:36;;;;;;;4.67;3.67;;;0.80;99.90;;;;;;5036565;28;20280;-82
2023/12/05 01:18:02;;;;;;;6.23;4.03;;;0.80;99.90;;;;;;5054342;28;20277;-82
2023/12/05 01:20:28;;;;;;;5.10;4.00;;;0.80;99.90;;;;;;5035909;28;20554;-81
2023/12/05 01:22:54;;;;;;;6.03;3.87;;;0.80;99.90;;;;;;5036473;28;20177;-81
2023/12/05 01:25:20;;;;;;;6.33;4.10;;;0.80;99.90;;;;;;5054089;28;20174;-82
2023/12/05 01:27:45;;;;;;;6.53;4.40;;;0.80;99.90;;;;;;5023105;28;20710;-81
2023/12/05 01:30:11;;;;;;;5.93;4.30;;;0.80;99.90;;;;;;5033532;28;20256;-82
2023/12/05 01:32:37;;;;;;;5.20;4.10;;;0.80;99.90;;;;;;5016591;28;20197;-82
2023/12/05 01:35:03;;;;;;;5.30;3.93;;;0.80;99.90;;;;;;5016506;28;20174;-81
2023/12/05 01:37:28;;;;;;;5.73;3.90;;;0.80;99.90;;;;;;5034261;28;20172;-82
2023/12/05 01:39:54;;;;;;;5.60;4.17;;;0.90;99.90;;;;;;5033738;28;20182;-82
2023/12/05 01:42:19;;;;;;;5.07;3.70;;;0.90;99.90;;;;;;5033916;28;20194;-81
2023/12/05 01:44:45;;;;;;;5.27;3.77;;;0.90;99.90;;;;;;5034235;28;20261;-82
2023/12/05 01:47:12;;;;;;;6.17;4.07;;;1.00;99.90;;;;;;5016548;28;20170;-82
2023/12/05 01:49:40;;;;;;;4.70;3.50;;;1.00;99.90;;;;;;5033721;28;20193;-82
2023/12/05 01:52:07;;;;;;;6.00;3.93;;;1.00;99.90;;;;;;5033908;28;20254;-82
2023/12/05 01:54:33;;;;;;;5.40;3.83;;;1.00;99.90;;;;;;5034047;28;20253;-82
2023/12/05 01:57:00;;;;;;;5.53;4.07;;;1.00;99.90;;;;;;5016508;28;20206;-82
2023/12/05 01:59:26;;;;;;;5.40;3.97;;;1.10;99.90;;;;;;5033845;28;20202;-81
2023/12/05 02:01:53;;;;;;;5.53;3.83;;;1.20;99.90;;;;;;5015970;28;20593;-82
2023/12/05 02:04:19;;;;;;;5.77;3.93;;;1.20;99.90;;;;;;5016416;28;20170;-82
2023/12/05 02:06:49;;;;;;;5.33;4.07;;;1.10;99.90;;;;;;5033801;28;20209;-82
2023/12/05 02:09:16;;;;;;;5.00;3.50;;;1.10;99.90;;;;;;5015684;28;20171;-80
2023/12/05 02:11:42;;;;;;;5.53;3.83;;;1.10;99.90;;;;;;5033736;28;20206;-82
2023/12/05 02:14:09;;;;;;;5.87;3.87;;;1.10;99.90;;;;;;5016405;28;20166;-82
2023/12/05 02:16:36;;;;;;;5.53;4.03;;;1.10;99.90;;;;;;5033916;28;20186;-81
2023/12/05 02:19:38;;;;;;;5.23;4.30;;;1.00;99.90;;;;;;5033598;28;20175;-81
2023/12/05 02:22:12;;;;;;;5.40;3.80;;;1.00;99.90;;;;;;5016011;28;20545;-82
2023/12/05 02:25:01;;;;;;;5.07;3.80;;;1.00;99.90;;;;;;5033725;28;20222;-82
2023/12/05 02:27:39;;;;;;;5.13;3.80;;;0.90;99.90;;;;;;5033842;28;20169;-82
2023/12/05 02:30:05;;;;;;;5.60;4.10;;;0.90;99.90;;;;;;5033665;28;20159;-81
2023/12/05 02:32:30;;;;;;;4.97;3.90;;;0.90;99.90;;;;;;5015995;28;20186;-82
2023/12/05 02:34:56;;;;;;;4.97;3.50;;;0.90;99.90;;;;;;5015674;28;20249;-82
2023/12/05 02:37:31;;;;;;;4.97;3.97;;;0.90;99.90;;;;;;5016008;28;20635;-82
2023/12/05 02:40:07;;;;;;;4.43;3.33;;;0.80;99.90;;;;;;5015384;28;20240;-82
2023/12/05 02:42:34;;;;;;;4.70;3.53;;;0.80;99.90;;;;;;5033472;28;20201;-82
2023/12/05 02:45:02;;;;;;;5.97;3.90;;;0.80;99.90;;;;;;5015809;28;20257;-82
2023/12/05 02:47:30;;;;;;;5.77;4.07;;;0.90;99.90;;;;;;5015780;28;20178;-82
2023/12/05 02:49:56;;;;;;;4.53;3.77;;;0.80;99.90;;;;;;5033379;28;20174;-82
2023/12/05 02:52:22;;;;;;;5.43;3.90;;;0.80;99.90;;;;;;5033980;28;20329;-82
2023/12/05 02:54:48;;;;;;;4.97;3.77;;;0.80;99.90;;;;;;5033729;28;20212;-82
2023/12/05 02:57:14;;;;;;;4.87;3.80;;;0.80;99.90;;;;;;5034343;28;20179;-82
2023/12/05 02:59:39;;;;;;;5.30;3.80;;;0.90;99.90;;;;;;5016289;28;20728;-82
2023/12/05 03:02:05;;;;;;;4.87;3.77;;;0.90;99.90;;;;;;5078518;22;20232;-82
2023/12/05 03:04:30;;;;;;;5.40;4.10;;;0.90;99.90;;;;;;5072740;28;20169;-82
2023/12/05 03:06:56;;;;;;;4.67;3.67;;;0.90;99.90;;;;;;5072957;28;20178;-82
2023/12/05 03:09:21;;;;;;;6.03;4.07;;;0.90;99.90;;;;;;5072291;28;20175;-82
2023/12/05 03:11:47;;;;;;;5.80;3.67;;;0.90;99.90;;;;;;5073109;28;20217;-82
2023/12/05 03:14:14;;;;;;;5.03;3.53;;;0.90;99.90;;;;;;5072779;28;20204;-82
2023/12/05 03:16:39;;;;;;;5.30;3.80;;;0.90;99.90;;;;;;5073003;28;20184;-82
2023/12/05 03:19:05;;;;;;;5.73;3.90;;;0.90;99.90;;;;;;5073809;28;20171;-83
2023/12/05 03:21:30;;;;;;;4.87;3.93;;;0.90;99.90;;;;;;5072848;28;20288;-82
2023/12/05 03:23:56;;;;;;;5.07;4.00;;;0.90;99.90;;;;;;5072910;28;20209;-82
2023/12/05 03:26:23;;;;;;;5.67;3.93;;;1.00;99.90;;;;;;5074211;28;20216;-82
2023/12/05 03:28:49;;;;;;;5.17;4.13;;;1.00;99.90;;;;;;5073182;28;20175;-81
2023/12/05 03:31:15;;;;;;;5.23;3.73;;;1.00;99.90;;;;;;5072145;28;20211;-82
2023/12/05 03:33:41;;;;;;;4.70;3.73;;;1.00;99.90;;;;;;5073188;28;20588;-82
2023/12/05 03:36:07;;;;;;;5.40;3.77;;;1.00;99.90;;;;;;5076859;28;20177;-82
2023/12/05 03:38:32;;;;;;;3.87;3.37;;;1.10;99.90;;;;;;5078428;28;20264;-82
2023/12/05 03:40:58;;;;;;;5.50;3.60;;;1.20;99.90;;;;;;5077192;28;20209;-83
2023/12/05 03:43:23;;;;;;;4.20;3.20;;;1.20;99.90;;;;;;5076730;28;20171;-82
2023/12/05 03:45:49;;;;;;;4.53;3.73;;;1.10;99.90;;;;;;5074894;28;20603;-82
2023/12/05 03:48:15;;;;;;;4.47;3.50;;;1.10;99.90;;;;;;5075003;28;20180;-82
2023/12/05 03:50:40;;;;;;;4.80;3.60;;;1.20;99.90;;;;;;5075451;28;20608;-82
2023/12/05 03:53:06;;;;;;;4.80;3.40;;;1.20;99.90;;;;;;5074730;28;20656;-82
2023/12/05 03:55:34;;;;;;;4.00;3.37;;;1.20;99.90;;;;;;5075998;28;20225;-82
2023/12/05 03:57:59;;;;;;;3.77;3.00;;;1.20;99.90;;;;;;5074979;28;20169;-82
2023/12/05 04:00:25;;;;;;;5.30;3.57;;;1.40;99.90;;;;;;5075347;28;20180;-82
2023/12/05 04:02:50;;;;;;;4.33;3.50;;;1.50;99.90;;;;;;5074346;28;20207;-82
2023/12/05 04:05:16;;;;;;;4.27;3.20;;;1.60;99.90;;;;;;5074565;28;20269;-82
2023/12/05 04:07:42;;;;;;;4.17;3.33;;;1.60;99.90;;;;;;5075532;28;20180;-82
2023/12/05 04:10:09;;;;;;;5.13;3.37;;;1.60;99.90;;;;;;5073897;28;20176;-82
2023/12/05 04:12:34;;;;;;;4.70;3.33;;;1.70;99.90;;;;;;5073963;28;20186;-82
2023/12/05 04:15:00;;;;;;;4.67;3.80;;;1.70;99.90;;;;;;5075381;28;20176;-83
2023/12/05 04:17:26;;;;;;;5.20;3.70;;;1.70;99.90;;;;;;5075434;28;20174;-81
2023/12/05 04:19:51;;;;;;;4.60;3.53;;;1.70;99.90;;;;;;5075016;28;20171;-82
2023/12/05 04:22:17;;;;;;;4.93;3.60;;;1.70;99.90;;;;;;5075117;28;20599;-81
2023/12/05 04:24:42;;;;;;;4.53;3.67;;;1.70;99.90;;;;;;5075411;28;20591;-82
2023/12/05 04:27:08;;;;;;;4.07;3.30;;;1.70;99.90;;;;;;5075235;28;20215;-82
2023/12/05 04:29:34;;;;;;;4.17;3.30;;;1.70;99.90;;;;;;5074600;28;20187;-82
2023/12/05 04:32:02;;;;;;;4.03;3.40;;;1.80;99.90;;;;;;5073233;28;20277;-82
2023/12/05 04:34:27;;;;;;;5.23;3.70;;;1.90;99.90;;;;;;5073168;28;20682;-82
2023/12/05 04:36:53;;;;;;;4.23;3.30;;;1.90;99.90;;;;;;5074563;28;20180;-81
2023/12/05 04:39:19;;;;;;;4.23;3.23;;;1.90;99.90;;;;;;5072926;28;20202;-81
2023/12/05 04:41:44;;;;;;;4.27;3.63;;;2.00;99.90;;;;;;5074557;28;20670;-82
2023/12/05 04:44:10;;;;;;;4.50;3.43;;;2.10;99.90;;;;;;5073297;28;20552;-82
2023/12/05 04:46:37;;;;;;;5.00;3.60;;;2.00;99.90;;;;;;5072908;28;20204;-82
2023/12/05 04:49:03;;;;;;;4.40;3.40;;;2.10;99.90;;;;;;5073710;28;20257;-81
2023/12/05 04:51:28;;;;;;;5.03;3.97;;;2.10;99.90;;;;;;5072843;28;20247;-81
2023/12/05 04:53:54;;;;;;;5.27;4.00;;;2.20;99.90;;;;;;5073466;28;20188;-81
2023/12/05 04:56:20;;;;;;;5.53;4.00;;;2.20;99.90;;;;;;5074342;28;20636;-81
2023/12/05 04:58:45;;;;;;;5.40;3.97;;;2.20;99.90;;;;;;5074365;28;20167;-81
2023/12/05 05:01:11;;;;;;;6.43;4.67;;;2.20;99.90;;;;;;5073506;28;20727;-81
2023/12/05 05:03:36;;;;;;;5.77;4.40;;;2.20;99.90;;;;;;5073945;28;20270;-82
2023/12/05 05:06:02;;;;;;;6.07;4.80;;;2.20;99.90;;;;;;5073823;28;20187;-82
2023/12/05 05:08:27;;;;;;;7.10;5.17;;;2.20;99.90;;;;;;5073896;28;20233;-83
2023/12/05 05:10:53;;;;;;;6.47;4.87;;;2.20;99.90;;;;;;5073125;28;20207;-82
2023/12/05 05:13:18;;;;;;;5.97;4.47;;;2.10;99.90;;;;;;5072548;28;20200;-82
2023/12/05 05:15:44;;;;;;;6.57;5.07;;;2.10;99.90;;;;;;5072421;28;20222;-82
2023/12/05 05:18:09;;;;;;;6.13;4.90;;;2.10;99.90;;;;;;5072523;28;20179;-82
2023/12/05 05:20:35;;;;;;;7.30;5.10;;;2.00;99.90;;;;;;5072067;28;20179;-82
2023/12/05 05:23:00;;;;;;;8.47;5.73;;;2.00;99.90;;;;;;5072270;28;20207;-82
2023/12/05 05:25:26;;;;;;;8.00;5.77;;;2.10;99.90;;;;;;5073845;28;20180;-82
2023/12/05 05:27:52;;;;;;;8.70;5.70;;;2.10;99.90;;;;;;5073616;28;20184;-82
2023/12/05 05:30:17;;;;;;;8.03;5.50;;;2.10;99.90;;;;;;5071501;28;20196;-82
2023/12/05 05:32:43;;;;;;;7.37;5.70;;;2.20;99.90;;;;;;5071942;28;20711;-82
2023/12/05 05:35:09;;;;;;;8.87;6.40;;;2.20;99.90;;;;;;5072919;28;20176;-82
2023/12/05 05:37:35;;;;;;;7.60;5.23;;;2.30;99.90;;;;;;5073499;28;20190;-82
2023/12/05 05:40:00;;;;;;;9.50;6.00;;;2.20;99.90;;;;;;5072862;28;20179;-82
2023/12/05 05:42:26;;;;;;;7.53;5.50;;;2.30;99.90;;;;;;5071839;28;20226;-82
2023/12/05 05:44:51;;;;;;;11.63;5.80;;;2.30;99.90;;;;;;5073030;28;20229;-82
2023/12/05 05:47:17;;;;;;;7.07;5.27;;;2.40;99.90;;;;;;5072084;28;20183;-82
2023/12/05 05:49:43;;;;;;;7.70;5.67;;;2.40;99.90;;;;;;5071145;28;20269;-82
2023/12/05 05:52:08;;;;;;;8.03;5.77;;;2.40;99.90;;;;;;5073091;28;20224;-82
2023/12/05 05:54:34;;;;;;;7.90;5.33;;;2.40;99.90;;;;;;5072143;28;20179;-82
2023/12/05 05:57:00;;;;;;;7.07;4.90;;;2.50;99.90;;;;;;5072687;28;20186;-82
2023/12/05 05:59:25;;;;;;;8.73;5.33;;;2.50;99.90;;;;;;5071155;28;20172;-82
2023/12/05 06:01:51;;;;;;;7.33;5.17;;;2.50;99.90;;;;;;5072260;28;20299;-82
2023/12/05 06:04:16;;;;;;;5.80;4.70;;;2.50;99.90;;;;;;5071760;28;20178;-82
2023/12/05 06:06:42;;;;;;;7.70;4.90;;;2.60;99.90;;;;;;5072143;28;20176;-82
2023/12/05 06:09:07;;;;;;;6.23;4.77;;;2.60;99.90;;;;;;5072729;28;20207;-82
2023/12/05 06:11:33;;;;;;;7.30;4.67;;;2.60;99.90;;;;;;5071379;28;20212;-82
2023/12/05 06:13:58;;;;;;;8.30;5.03;;;2.60;99.90;;;;;;5073011;28;20172;-82
2023/12/05 06:16:25;;;;;;;6.77;4.47;;;2.50;99.90;;;;;;5071708;28;20547;-80
2023/12/05 06:18:51;;;;;;;6.40;5.03;;;2.60;99.90;;;;;;5072484;28;20167;-80
2023/12/05 06:21:17;;;;;;;6.83;4.73;;;2.50;99.90;;;;;;5072382;28;20208;-79
2023/12/05 06:23:42;;;;;;;7.30;5.00;;;2.60;99.90;;;;;;5072589;28;20192;-80
2023/12/05 06:26:08;;;;;;;6.70;4.80;;;2.60;99.90;;;;;;5071348;28;20183;-80
2023/12/05 06:28:33;;;;;;;7.17;5.00;;;2.60;99.90;;;;;;5072748;28;20182;-80
2023/12/05 06:30:59;;;;;;;7.13;4.83;;;2.60;99.90;;;;;;5070425;28;20295;-78
2023/12/05 06:33:25;;;;;;;6.93;5.17;;;2.50;99.90;;;;;;5071767;28;20199;-77
2023/12/05 06:35:50;;;;;;;6.73;4.87;;;2.60;99.90;;;;;;5072227;28;20198;-78
2023/12/05 06:38:16;;;;;;;6.20;4.47;;;2.60;99.90;;;;;;5070965;28;20180;-81
2023/12/05 06:40:41;;;;;;;7.77;4.47;;;2.60;99.90;;;;;;5071786;28;20183;-82
2023/12/05 06:43:07;;;;;;;6.63;4.80;;;2.60;99.90;;;;;;5071048;28;20187;-81
2023/12/05 06:45:36;;;;;;;6.67;4.70;;;2.50;99.90;;;;;;5072068;28;20216;-81
2023/12/05 06:48:02;;;;;;;7.27;5.00;;;2.50;99.90;;;;;;5071017;28;20179;-81
2023/12/05 06:50:27;;;;;;;5.27;4.13;;;2.50;99.90;;;;;;5070124;28;20212;-80
2023/12/05 06:52:57;;;;;;;5.93;4.40;;;2.50;99.90;;;;;;5070853;28;20252;-81
2023/12/05 06:55:23;;;;;;;6.23;4.30;;;2.40;99.90;;;;;;5071940;28;20182;-81
2023/12/05 06:57:49;;;;;;;6.07;4.73;;;2.50;99.90;;;;;;5072283;28;20249;-82
2023/12/05 07:00:16;;;;;;;6.20;4.77;;;2.50;99.90;;;;;;5070583;28;20195;-82
2023/12/05 07:02:42;;;;;;;7.70;5.23;;;2.50;99.90;;;;;;5071682;28;20219;-80
2023/12/05 07:05:08;;;;;;;6.87;4.67;;;2.50;99.90;;;;;;5071775;28;20180;-82
2023/12/05 07:07:34;;;;;;;6.90;5.03;;;2.50;99.90;;;;;;5070774;28;20559;-79
2023/12/05 07:10:00;;;;;;;6.40;4.90;;;2.50;99.90;;;;;;5072754;28;20177;-79
2023/12/05 07:12:25;;;;;;;6.00;4.40;;;2.50;99.90;;;;;;5074353;28;20206;-82
2023/12/05 07:14:51;;;;;;;7.80;5.03;;;2.40;99.90;;;;;;5074202;28;20226;-79
2023/12/05 07:17:18;;;;;;;6.40;4.80;;;2.50;99.90;;;;;;5074353;28;20188;-82
2023/12/05 07:19:44;;;;;;;5.97;4.40;;;2.60;99.90;;;;;;5073435;28;20179;-79
2023/12/05 07:22:10;;;;;;;6.60;4.37;;;2.60;99.90;;;;;;5075346;28;20204;-77
2023/12/05 07:24:35;;;;;;;7.03;4.93;;;2.60;99.90;;;;;;5074082;28;20267;-82
2023/12/05 07:27:01;;;;;;;6.20;4.23;;;2.60;99.90;;;;;;5075497;28;20243;-81
2023/12/05 07:29:26;;;;;;;5.47;4.43;;;2.60;99.90;;;;;;5073693;28;20264;-84
2023/12/05 07:31:53;;;;;;;6.13;4.43;;;2.50;99.90;;;;;;5075107;28;20604;-83
2023/12/05 07:34:18;;;;;;;5.63;4.40;;;2.50;99.90;;;;;;5075179;28;20652;-83
2023/12/05 07:36:44;;;;;;;4.93;4.00;;;2.60;99.90;;;;;;5073966;28;20172;-84
2023/12/05 07:39:10;;;;;;;5.13;3.83;;;2.60;99.90;;;;;;5075270;28;20180;-84
2023/12/05 07:41:36;;;;;;;6.10;4.50;;;2.60;99.90;;;;;;5073720;28;20291;-83
2023/12/05 07:44:01;;;;;;;4.37;3.67;;;2.60;99.90;;;;;;5069149;28;20656;-83
2023/12/05 07:46:28;;;;;;;5.67;4.17;;;2.60;99.90;;;;;;5069271;28;20195;-81
2023/12/05 07:48:53;;;;;;;5.40;3.77;;;2.70;99.90;;;;;;5056626;28;20193;-79
2023/12/05 07:51:19;;;;;;;5.50;4.60;;;2.60;99.90;;;;;;5054123;28;20563;-80
2023/12/05 07:53:45;;;;;;;5.20;3.80;;;2.60;99.90;;;;;;5056972;28;20191;-81
2023/12/05 07:56:11;;;;;;;5.17;3.70;;;2.70;99.90;;;;;;5058782;28;20175;-85
2023/12/05 07:58:36;;;;;;;5.33;3.67;;;2.70;99.90;;;;;;5072200;28;20177;-83
2023/12/05 08:01:02;;;;;;;4.43;3.40;;;2.70;99.90;;;;;;5073809;28;20243;-82
2023/12/05 08:03:28;;;;;;;4.27;3.20;;;2.70;99.90;;;;;;5073264;28;20188;-82
2023/12/05 08:05:54;;;;;;;3.97;3.13;;;2.70;99.90;;;;;;5072973;28;20213;-82
2023/12/05 08:08:20;;;;;;;4.43;3.40;;;2.70;99.90;;;;;;5074130;28;20249;-82
2023/12/05 08:10:48;;;;;;;4.40;3.40;;;2.80;99.90;;;;;;5073162;28;20619;-82
2023/12/05 08:13:14;;;;;;;4.27;3.60;;;2.80;99.90;;;;;;5072265;28;20662;-82
2023/12/05 08:15:39;;;;;;;4.30;3.23;;;2.80;99.90;;;;;;5073597;28;20172;-82
2023/12/05 08:18:05;;;;;;;4.13;3.50;;;2.80;99.90;;;;;;5073167;28;20179;-82
2023/12/05 08:20:30;;;;;;;5.07;3.97;;;2.80;99.90;;;;;;5071692;28;20180;-82
2023/12/05 08:22:56;;;;;;;3.50;3.10;;;2.70;99.90;;;;;;5074204;28;20202;-82
2023/12/05 08:25:21;;;;;;;4.63;3.30;;;2.70;99.90;;;;;;5073102;28;20191;-81
2023/12/05 08:27:47;;;;;;;4.13;3.50;;;2.80;99.90;;;;;;5072948;28;20175;-82
2023/12/05 08:30:13;;;;;;;3.77;3.20;;;2.80;99.90;;;;;;5072324;28;20184;-82
2023/12/05 08:32:38;;;;;;;3.80;3.20;;;2.80;99.90;;;;;;5074092;28;20275;-81
2023/12/05 08:35:04;;;;;;;3.07;2.70;;;2.80;99.90;;;;;;5074230;28;20173;-81
2023/12/05 08:37:31;;;;;;;3.53;2.90;;;2.90;99.90;;;;;;5073824;28;20649;-82
2023/12/05 08:39:57;;;;;;;4.17;2.90;;;2.90;99.90;;;;;;5073171;28;20200;-82
2023/12/05 08:42:22;;;;;;;3.50;3.07;;;3.00;99.90;;;;;;5072172;28;20204;-81
2023/12/05 08:44:48;;;;;;;4.53;3.17;;;2.90;99.90;;;;;;5072647;28;20269;-81
2023/12/05 08:47:13;;;;;;;5.17;3.53;;;2.90;99.90;;;;;;5072732;28;20194;-81
2023/12/05 08:49:40;;;;;;;4.17;3.10;;;2.80;99.90;;;;;;5073205;28;20179;-81
2023/12/05 08:52:05;;;;;;;4.00;3.57;;;2.80;99.90;;;;;;5072267;28;20263;-82
2023/12/05 08:54:31;;;;;;;4.03;3.47;;;2.80;99.90;;;;;;5072260;28;20589;-82
2023/12/05 08:56:57;;;;;;;5.37;3.97;;;2.80;99.90;;;;;;5073537;28;20177;-82
2023/12/05 08:59:22;;;;;;;5.60;3.70;;;2.70;99.90;;;;;;5073041;28;20564;-82
2023/12/05 09:01:48;;;;;;;5.50;3.90;;;2.80;99.90;;;;;;5072771;28;20220;-82
2023/12/05 09:04:14;;;;;;;5.60;4.10;;;2.70;99.90;;;;;;5072308;28;20184;-82
2023/12/05 09:06:39;;;;;;;5.30;3.70;;;2.70;99.90;;;;;;5071975;28;20179;-82
2023/12/05 09:09:05;;;;;;;6.47;4.00;;;2.80;99.90;;;;;;5071924;28;20176;-82
2023/12/05 09:11:30;;;;;;;5.43;4.30;;;2.80;99.90;;;;;;5071507;28;20211;-83
2023/12/05 09:13:58;;;;;;;5.60;4.13;;;2.90;99.90;;;;;;5072924;28;20180;-82
2023/12/05 09:16:24;;;;;;;5.70;4.03;;;2.90;99.90;;;;;;5072351;28;20176;-82
2023/12/05 09:18:51;;;;;;;6.67;4.40;;;2.90;99.90;;;;;;5073152;28;20188;-82
2023/12/05 09:21:16;;;;;;;5.37;4.40;;;3.00;99.90;;;;;;5072629;28;20209;-82
2023/12/05 09:23:42;;;;;;;5.37;4.03;;;3.10;99.90;;;;;;5073205;28;20187;-82
2023/12/05 09:26:07;;;;;;;5.37;4.27;;;3.10;99.90;;;;;;5071671;28;20220;-82
2023/12/05 09:28:34;;;;;;;6.47;4.50;;;3.20;99.90;;;;;;5071529;28;20181;-83
2023/12/05 09:30:59;;;;;;;5.40;4.23;;;3.20;99.90;;;;;;5072009;28;20240;-82
2023/12/05 09:33:25;;;;;;;5.07;4.30;;;3.20;99.90;;;;;;5071659;28;20208;-82
2023/12/05 09:35:50;;;;;;;5.53;4.00;;;3.20;99.90;;;;;;5071591;28;20699;-82
2023/12/05 09:38:16;;;;;;;5.37;4.10;;;3.30;99.90;;;;;;5072870;28;20172;-82
2023/12/05 09:40:42;;;;;;;5.17;4.20;;;3.30;99.90;;;;;;5072120;28;20180;-82
2023/12/05 09:43:08;;;;;;;6.23;4.50;;;3.40;99.90;;;;;;5071276;28;20237;-82
2023/12/05 09:45:40;;;;;;;6.57;4.60;;;3.40;99.90;;;;;;5072848;28;20190;-82
2023/12/05 09:48:08;;;;;;;6.43;4.60;;;3.50;99.90;;;;;;5072853;28;20282;-82
2023/12/05 09:50:36;;;;;;;5.67;4.33;;;3.50;99.90;;;;;;5070811;28;20350;-83
2023/12/05 09:53:02;;;;;;;5.57;4.50;;;3.60;99.90;;;;;;5071053;28;20249;-82
2023/12/05 09:55:28;;;;;;;5.10;3.90;;;3.60;99.90;;;;;;5071096;28;20241;-82
2023/12/05 09:57:57;;;;;;;4.93;3.70;;;3.60;99.90;;;;;;5072130;28;20537;-81
2023/12/05 10:00:24;;;;;;;4.63;3.80;;;3.60;99.90;;;;;;5070445;28;20176;-82
2023/12/05 10:02:52;;;;;;;4.83;4.07;;;3.60;99.90;;;;;;5070806;28;20208;-82
2023/12/05 10:05:20;;;;;;;7.00;4.57;;;3.60;99.90;;;;;;5071076;28;20193;-82
2023/12/05 10:07:47;;;;;;;5.77;4.60;;;3.50;99.90;;;;;;5072231;28;20246;-82
2023/12/05 10:10:14;;;;;;;6.40;5.27;;;3.50;99.90;;;;;;5071499;28;20271;-82
2023/12/05 10:12:41;;;;;;;7.97;4.60;;;3.40;99.90;;;;;;5072246;28;20204;-82
2023/12/05 10:15:07;;;;;;;8.87;6.40;;;3.40;99.90;;;;;;5070945;28;20636;-83
2023/12/05 10:17:34;;;;;;;9.33;6.03;;;3.50;99.90;;;;;;5072191;28;20173;-82
2023/12/05 10:20:00;;;;;;;10.20;6.67;;;3.50;99.90;;;;;;5069980;28;20200;-83
2023/12/05 10:22:26;;;;;;;7.27;5.07;;;3.40;99.90;;;;;;5070739;28;20232;-83
2023/12/05 10:24:54;;;;;;;5.93;4.93;;;3.40;99.90;;;;;;5070875;28;20191;-79
2023/12/05 10:27:20;;;;;;;8.00;5.37;;;3.30;99.90;;;;;;5072526;28;20180;-80
2023/12/05 10:29:45;;;;;;;5.40;4.40;;;3.30;99.90;;;;;;5071119;28;20187;-84
2023/12/05 10:32:12;;;;;;;5.23;4.30;;;3.30;99.90;;;;;;5072903;28;20207;-81
2023/12/05 10:34:52;;;;;;;7.50;5.10;;;3.40;99.90;;;;;;5072710;28;20172;-82
2023/12/05 10:37:28;;;;;;;7.03;4.67;;;3.30;99.90;;;;;;5072686;28;20637;-82
2023/12/05 10:39:56;;;;;;;5.93;4.50;;;3.30;99.90;;;;;;5070861;28;20176;-82
2023/12/05 10:42:28;;;;;;;6.63;4.90;;;3.30;99.90;;;;;;5071830;28;20227;-82
2023/12/05 10:44:53;;;;;;;6.27;4.83;;;3.40;99.90;;;;;;5074963;28;20172;-83
2023/12/05 10:47:19;;;;;;;6.93;4.90;;;3.30;99.90;;;;;;5077261;28;20180;-82
2023/12/05 10:49:45;;;;;;;7.47;5.33;;;3.30;99.90;;;;;;5075287;28;20675;-82
2023/12/05 10:52:15;;;;;;;6.20;4.63;;;3.30;99.90;;;;;;5075287;28;20219;-81
2023/12/05 10:54:41;;;;;;;6.97;4.90;;;3.20;99.90;;;;;;5075543;28;20724;-80
2023/12/05 10:57:09;;;;;;;7.10;4.80;;;3.30;99.90;;;;;;5075484;28;20177;-81
2023/12/05 10:59:36;;;;;;;6.57;4.60;;;3.30;99.90;;;;;;5076211;28;20172;-82
2023/12/05 11:02:11;;;;;;;7.37;4.70;;;3.30;99.90;;;;;;5075187;28;20208;-81
2023/12/05 11:04:38;;;;;;;8.57;5.13;;;3.30;99.90;;;;;;5076846;28;20255;-82
2023/12/05 11:07:03;;;;;;;5.73;4.43;;;3.30;99.90;;;;;;5076545;28;20181;-81
2023/12/05 11:09:29;;;;;;;5.37;4.13;;;3.40;99.90;;;;;;5076079;28;20222;-82
2023/12/05 11:11:56;;;;;;;6.10;4.23;;;3.40;99.90;;;;;;5075662;28;20213;-82
2023/12/05 11:14:24;;;;;;;6.17;3.70;;;3.40;99.90;;;;;;5077792;28;20177;-82
2023/12/05 11:16:53;;;;;;;5.10;3.50;;;3.30;99.90;;;;;;5068914;28;20722;-82
2023/12/05 11:19:43;;;;;;;5.07;3.50;;;3.40;99.90;;;;;;5079236;28;20201;-81
2023/12/05 11:22:36;;;;;;;5.27;3.40;;;3.40;99.90;;;;;;5076727;28;20214;-82
2023/12/05 11:25:01;;;;;;;4.13;3.07;;;3.40;99.90;;;;;;5073330;28;20192;-81
2023/12/05 11:27:45;;;;;;;4.33;3.20;;;3.40;99.90;;;;;;5073516;28;20177;-80
2023/12/05 11:30:20;;;;;;;4.00;2.90;;;3.40;99.90;;;;;;5073076;28;20250;-79
2023/12/05 11:32:57;;;;;;;4.30;3.10;;;3.50;99.90;;;;;;5074284;28;20207;-81
2023/12/05 11:35:26;;;;;;;4.63;3.20;;;3.50;99.90;;;;;;5079077;28;20188;-80
2023/12/05 11:38:11;;;;;;;5.53;3.10;;;3.50;99.90;;;;;;5078328;28;20165;-80
2023/12/05 11:40:37;;;;;;;4.27;2.93;;;3.50;99.90;;;;;;5078622;28;20178;-80
2023/12/05 11:43:07;;;;;;;3.63;3.00;;;3.50;99.90;;;;;;5079772;28;20231;-79
2023/12/05 11:45:44;;;;;;;5.13;2.70;;;3.50;99.90;;;;;;5081896;28;20679;-81
2023/12/05 11:48:21;;;;;;;3.87;2.80;;;3.60;99.90;;;;;;5080663;28;20636;-79
2023/12/05 11:50:49;;;;;;;3.93;2.80;;;3.60;99.90;;;;;;5076580;28;20204;-85
2023/12/05 11:53:17;;;;;;;5.80;3.53;;;3.60;99.90;;;;;;5074995;28;20181;-81
2023/12/05 11:55:47;;;;;;;8.83;5.67;;;3.60;99.90;;;;;;5072432;28;20180;-80
2023/12/05 11:58:42;;;;;;;5.83;4.20;;;3.60;99.90;;;;;;5074703;28;20183;-79
2023/12/05 12:01:09;;;;;;;4.47;3.23;;;3.70;99.90;;;;;;5063943;28;20209;-79
2023/12/05 12:03:53;;;;;;;5.00;3.77;;;3.70;99.90;;;;;;5074773;28;20200;-79
2023/12/05 12:06:20;;;;;;;5.90;3.70;;;3.70;99.90;;;;;;5073355;28;20267;-79
2023/12/05 12:08:49;;;;;;;4.60;3.43;;;3.70;99.90;;;;;;5073148;28;20203;-80
2023/12/05 12:11:15;;;;;;;4.67;3.20;;;3.70;99.90;;;;;;5074257;28;20208;-80
2023/12/05 12:13:40;;;;;;;5.87;3.83;;;3.70;99.90;;;;;;5074815;28;20180;-82
2023/12/05 12:16:06;;;;;;;6.80;4.73;;;3.70;99.90;;;;;;5074665;28;20176;-81
2023/12/05 12:18:32;;;;;;;5.90;4.40;;;3.80;99.90;;;;;;5074467;28;20519;-80
2023/12/05 12:20:59;;;;;;;6.97;4.80;;;3.80;99.90;;;;;;5072384;28;20182;-80
2023/12/05 12:23:25;;;;;;;7.17;5.20;;;3.70;99.90;;;;;;5074169;28;20671;-80
2023/12/05 12:25:55;;;;;;;6.27;4.60;;;3.70;99.90;;;;;;5074219;28;20250;-80
2023/12/05 12:28:29;;;;;;;6.13;4.07;;;3.80;99.90;;;;;;5074331;28;20181;-80
2023/12/05 12:30:58;;;;;;;5.87;4.07;;;3.80;99.90;;;;;;5072295;28;20210;-80
2023/12/05 12:33:38;;;;;;;4.30;3.47;;;3.80;99.90;;;;;;5073536;28;20211;-80
2023/12/05 12:36:05;;;;;;;4.50;3.23;;;3.80;99.90;;;;;;5070760;28;20183;-79
2023/12/05 12:38:33;;;;;;;5.43;3.80;;;3.90;99.90;;;;;;5072902;28;20177;-79
2023/12/05 12:40:59;;;;;;;5.53;4.27;;;4.00;99.90;;;;;;5073368;28;20180;-79
2023/12/05 12:43:25;;;;;;;5.83;3.93;;;4.10;99.90;;;;;;5072604;28;20181;-79
2023/12/05 12:45:50;;;;;;;6.00;4.00;;;4.10;99.90;;;;;;5072881;28;20633;-79
2023/12/05 12:48:17;;;;;;;5.17;3.50;;;4.10;99.90;;;;;;5072290;28;20183;-80
2023/12/05 12:50:42;;;;;;;4.77;3.70;;;4.10;99.90;;;;;;5073092;28;20231;-80
2023/12/05 12:53:09;;;;;;;6.20;3.80;;;4.10;99.90;;;;;;5073928;28;20276;-79
2023/12/05 12:55:34;;;;;;;5.93;3.70;;;4.20;99.90;;;;;;5072608;28;20173;-79